Portada
METAR-TAF:

METAR-TAF

Aeropuertos :

Aeropuerto Internacional de Kuwait

Ciudad de Kuwait, Kuwait

latitud: 29-13N, longitud: 047-59E, altitud: 55 m

Observación

El informe se hizo hace 21 minutos, a las 06:00 UTC
Viento 8 kt del oeste
Temperatura 41°C
Humedad 11%
Presión 1004 hPa
Visibilidad: 7000 m
Cielo despejado

METAR: OKBK 020600Z 28008KT 7000 SKC 41/05 Q1004 NOSIG

Hora: 09:21 (06:21 UTC)

Pronóstico

El informe se hizo hace 1 hora y 36 minutos, a las 04:45 UTC
Pronóstico válido del 02 a las 06 UTC al 03 a las 12 UTC
Viento 12 kt del sur
Visibilidad: 7000 m

TAF: OKBK 020445Z 0206/0312 18012KT 7000 NSC

Observaciones y pronósticos meteorológicos de más de 4000 aeropuertos (mensajes METAR y TAF).

Los puntos amarillos y rojos representan las estaciones disponibles.

Ponga el ratón en el punto deseado para ver el nombre de la estación.

Haga clic para ver las observaciones y los pronósticos meteorológicos.

Para cambiar el mapa : haga clic en los botones verdes con una cruz de color negro para hacer un zoom, en el botón verde con un guión para alejar o en las flechas verdes para mapas adyacentes.


METAR-TAF: